sensor_id;sensor_type;location;lat;lon;timestamp;temperature;humidity
78779;DHT22;68121;52.404;5.318;2023-02-28T00:01:25;4.50;61.00
78779;DHT22;68121;52.404;5.318;2023-02-28T00:03:51;4.50;61.00
78779;DHT22;68121;52.404;5.318;2023-02-28T00:06:17;4.50;61.10
78779;DHT22;68121;52.404;5.318;2023-02-28T00:08:43;4.50;61.20
78779;DHT22;68121;52.404;5.318;2023-02-28T00:11:12;4.40;61.30
78779;DHT22;68121;52.404;5.318;2023-02-28T00:13:42;4.40;61.40
78779;DHT22;68121;52.404;5.318;2023-02-28T00:16:13;4.40;61.40
78779;DHT22;68121;52.404;5.318;2023-02-28T00:18:39;4.40;61.40
78779;DHT22;68121;52.404;5.318;2023-02-28T00:21:07;4.40;61.50
78779;DHT22;68121;52.404;5.318;2023-02-28T00:23:33;4.40;61.60
78779;DHT22;68121;52.404;5.318;2023-02-28T00:25:59;4.40;61.60
78779;DHT22;68121;52.404;5.318;2023-02-28T00:28:25;4.40;61.60
78779;DHT22;68121;52.404;5.318;2023-02-28T00:30:52;4.40;61.70
78779;DHT22;68121;52.404;5.318;2023-02-28T00:33:18;4.40;61.70
78779;DHT22;68121;52.404;5.318;2023-02-28T00:35:44;4.50;61.80
78779;DHT22;68121;52.404;5.318;2023-02-28T00:38:13;4.50;61.90
78779;DHT22;68121;52.404;5.318;2023-02-28T00:40:39;4.50;61.90
78779;DHT22;68121;52.404;5.318;2023-02-28T00:43:05;4.50;62.00
78779;DHT22;68121;52.404;5.318;2023-02-28T00:45:31;4.50;62.00
78779;DHT22;68121;52.404;5.318;2023-02-28T00:47:57;4.40;62.10
78779;DHT22;68121;52.404;5.318;2023-02-28T00:50:23;4.40;62.20
78779;DHT22;68121;52.404;5.318;2023-02-28T00:52:49;4.40;62.30
78779;DHT22;68121;52.404;5.318;2023-02-28T00:55:16;4.40;62.30
78779;DHT22;68121;52.404;5.318;2023-02-28T00:57:42;4.40;62.30
78779;DHT22;68121;52.404;5.318;2023-02-28T01:00:08;4.40;62.40
78779;DHT22;68121;52.404;5.318;2023-02-28T01:02:34;4.40;62.50
78779;DHT22;68121;52.404;5.318;2023-02-28T01:05:00;4.40;62.50
78779;DHT22;68121;52.404;5.318;2023-02-28T01:07:26;4.40;62.60
78779;DHT22;68121;52.404;5.318;2023-02-28T01:09:52;4.50;62.70
78779;DHT22;68121;52.404;5.318;2023-02-28T01:12:19;4.50;62.70
78779;DHT22;68121;52.404;5.318;2023-02-28T01:14:45;4.50;62.80
78779;DHT22;68121;52.404;5.318;2023-02-28T01:17:11;4.50;62.90
78779;DHT22;68121;52.404;5.318;2023-02-28T01:19:37;4.50;62.90
78779;DHT22;68121;52.404;5.318;2023-02-28T01:22:04;4.60;62.90
78779;DHT22;68121;52.404;5.318;2023-02-28T01:24:31;4.70;63.00
78779;DHT22;68121;52.404;5.318;2023-02-28T01:26:57;4.70;63.00
78779;DHT22;68121;52.404;5.318;2023-02-28T01:29:23;4.70;63.00
78779;DHT22;68121;52.404;5.318;2023-02-28T01:31:49;4.60;63.10
78779;DHT22;68121;52.404;5.318;2023-02-28T01:34:16;4.60;63.20
78779;DHT22;68121;52.404;5.318;2023-02-28T01:36:45;4.60;63.30
78779;DHT22;68121;52.404;5.318;2023-02-28T01:39:11;4.50;63.30
78779;DHT22;68121;52.404;5.318;2023-02-28T01:41:39;4.50;63.40
78779;DHT22;68121;52.404;5.318;2023-02-28T01:47:09;4.60;63.50
78779;DHT22;68121;52.404;5.318;2023-02-28T01:49:35;4.70;63.30
78779;DHT22;68121;52.404;5.318;2023-02-28T01:52:02;4.70;63.30
78779;DHT22;68121;52.404;5.318;2023-02-28T01:54:34;4.70;63.30
78779;DHT22;68121;52.404;5.318;2023-02-28T01:57:11;4.70;63.40
78779;DHT22;68121;52.404;5.318;2023-02-28T01:59:45;4.70;63.40
78779;DHT22;68121;52.404;5.318;2023-02-28T02:02:16;4.80;63.40
78779;DHT22;68121;52.404;5.318;2023-02-28T02:07:19;4.90;63.40
78779;DHT22;68121;52.404;5.318;2023-02-28T02:09:45;4.90;63.40
78779;DHT22;68121;52.404;5.318;2023-02-28T02:12:27;4.90;63.40
78779;DHT22;68121;52.404;5.318;2023-02-28T02:15:40;4.80;63.50
78779;DHT22;68121;52.404;5.318;2023-02-28T02:18:15;4.70;63.50
78779;DHT22;68121;52.404;5.318;2023-02-28T02:26:50;4.80;63.50
78779;DHT22;68121;52.404;5.318;2023-02-28T02:29:45;4.70;63.50
78779;DHT22;68121;52.404;5.318;2023-02-28T02:32:42;4.80;63.50
78779;DHT22;68121;52.404;5.318;2023-02-28T02:37:56;4.80;63.40
78779;DHT22;68121;52.404;5.318;2023-02-28T02:41:12;4.70;63.40
78779;DHT22;68121;52.404;5.318;2023-02-28T02:43:20;4.80;63.40
78779;DHT22;68121;52.404;5.318;2023-02-28T02:46:06;4.80;63.40
78779;DHT22;68121;52.404;5.318;2023-02-28T02:48:37;4.90;63.50
78779;DHT22;68121;52.404;5.318;2023-02-28T02:51:09;4.90;63.40
78779;DHT22;68121;52.404;5.318;2023-02-28T02:56:32;4.80;63.50
78779;DHT22;68121;52.404;5.318;2023-02-28T02:59:11;4.80;63.50
78779;DHT22;68121;52.404;5.318;2023-02-28T03:01:38;4.80;63.60
78779;DHT22;68121;52.404;5.318;2023-02-28T03:04:12;4.70;63.60
78779;DHT22;68121;52.404;5.318;2023-02-28T03:06:40;4.80;63.60
78779;DHT22;68121;52.404;5.318;2023-02-28T03:09:06;4.70;63.60
78779;DHT22;68121;52.404;5.318;2023-02-28T03:11:35;4.70;63.60
78779;DHT22;68121;52.404;5.318;2023-02-28T03:14:30;4.70;63.70
78779;DHT22;68121;52.404;5.318;2023-02-28T03:26:02;4.70;63.80
78779;DHT22;68121;52.404;5.318;2023-02-28T03:28:38;4.70;63.80
78779;DHT22;68121;52.404;5.318;2023-02-28T03:31:16;4.70;63.70
78779;DHT22;68121;52.404;5.318;2023-02-28T03:33:54;4.70;63.90
78779;DHT22;68121;52.404;5.318;2023-02-28T03:36:28;4.70;64.00
78779;DHT22;68121;52.404;5.318;2023-02-28T03:39:03;4.70;64.00
78779;DHT22;68121;52.404;5.318;2023-02-28T03:41:41;4.70;64.10
78779;DHT22;68121;52.404;5.318;2023-02-28T03:44:24;4.70;64.20
78779;DHT22;68121;52.404;5.318;2023-02-28T03:46:58;4.60;64.20
78779;DHT22;68121;52.404;5.318;2023-02-28T03:49:34;4.60;64.20
78779;DHT22;68121;52.404;5.318;2023-02-28T03:52:03;4.60;64.30
78779;DHT22;68121;52.404;5.318;2023-02-28T03:54:32;4.60;64.30
78779;DHT22;68121;52.404;5.318;2023-02-28T03:57:10;4.60;64.30
78779;DHT22;68121;52.404;5.318;2023-02-28T03:59:42;4.60;64.30
78779;DHT22;68121;52.404;5.318;2023-02-28T04:02:09;4.60;64.30
78779;DHT22;68121;52.404;5.318;2023-02-28T04:04:35;4.50;64.40
78779;DHT22;68121;52.404;5.318;2023-02-28T04:07:05;4.50;64.30
78779;DHT22;68121;52.404;5.318;2023-02-28T04:09:31;4.50;64.40
78779;DHT22;68121;52.404;5.318;2023-02-28T04:11:57;4.50;64.40
78779;DHT22;68121;52.404;5.318;2023-02-28T04:14:23;4.50;64.40
78779;DHT22;68121;52.404;5.318;2023-02-28T04:16:50;4.50;64.50
78779;DHT22;68121;52.404;5.318;2023-02-28T04:19:17;4.40;64.50
78779;DHT22;68121;52.404;5.318;2023-02-28T04:21:45;4.40;64.70
78779;DHT22;68121;52.404;5.318;2023-02-28T04:24:14;4.30;64.70
78779;DHT22;68121;52.404;5.318;2023-02-28T04:26:42;4.30;64.80
78779;DHT22;68121;52.404;5.318;2023-02-28T04:29:11;4.30;64.80
78779;DHT22;68121;52.404;5.318;2023-02-28T04:31:37;4.20;64.80
78779;DHT22;68121;52.404;5.318;2023-02-28T04:34:04;4.20;64.90
78779;DHT22;68121;52.404;5.318;2023-02-28T04:36:30;4.20;64.80
78779;DHT22;68121;52.404;5.318;2023-02-28T04:38:56;4.20;64.80
78779;DHT22;68121;52.404;5.318;2023-02-28T04:41:23;4.20;64.70
78779;DHT22;68121;52.404;5.318;2023-02-28T04:43:51;4.20;64.80
78779;DHT22;68121;52.404;5.318;2023-02-28T04:46:17;4.20;64.80
78779;DHT22;68121;52.404;5.318;2023-02-28T04:48:44;4.10;64.80
78779;DHT22;68121;52.404;5.318;2023-02-28T04:51:12;4.10;64.70
78779;DHT22;68121;52.404;5.318;2023-02-28T04:53:40;4.00;64.80
78779;DHT22;68121;52.404;5.318;2023-02-28T04:56:07;4.00;64.80
78779;DHT22;68121;52.404;5.318;2023-02-28T04:58:34;3.90;64.90
78779;DHT22;68121;52.404;5.318;2023-02-28T05:01:04;3.90;64.90
78779;DHT22;68121;52.404;5.318;2023-02-28T05:03:36;3.90;65.00
78779;DHT22;68121;52.404;5.318;2023-02-28T05:06:02;3.90;65.00
78779;DHT22;68121;52.404;5.318;2023-02-28T05:08:28;3.90;65.20
78779;DHT22;68121;52.404;5.318;2023-02-28T05:10:56;3.80;65.30
78779;DHT22;68121;52.404;5.318;2023-02-28T05:13:22;3.70;65.50
78779;DHT22;68121;52.404;5.318;2023-02-28T05:15:48;3.70;65.60
78779;DHT22;68121;52.404;5.318;2023-02-28T05:18:15;3.60;65.70
78779;DHT22;68121;52.404;5.318;2023-02-28T05:20:41;3.50;65.90
78779;DHT22;68121;52.404;5.318;2023-02-28T05:23:09;3.40;66.10
78779;DHT22;68121;52.404;5.318;2023-02-28T05:25:36;3.30;66.20
78779;DHT22;68121;52.404;5.318;2023-02-28T05:28:03;3.30;66.40
78779;DHT22;68121;52.404;5.318;2023-02-28T05:30:29;3.30;66.50
78779;DHT22;68121;52.404;5.318;2023-02-28T05:32:55;3.30;66.60
78779;DHT22;68121;52.404;5.318;2023-02-28T05:35:21;3.30;66.70
78779;DHT22;68121;52.404;5.318;2023-02-28T05:37:47;3.30;66.70
78779;DHT22;68121;52.404;5.318;2023-02-28T05:40:13;3.30;66.80
78779;DHT22;68121;52.404;5.318;2023-02-28T05:42:40;3.30;66.90
78779;DHT22;68121;52.404;5.318;2023-02-28T05:45:07;3.30;66.90
78779;DHT22;68121;52.404;5.318;2023-02-28T05:47:34;3.30;66.90
78779;DHT22;68121;52.404;5.318;2023-02-28T05:50:00;3.20;67.00
78779;DHT22;68121;52.404;5.318;2023-02-28T05:52:27;3.10;67.10
78779;DHT22;68121;52.404;5.318;2023-02-28T05:54:53;3.10;67.20
78779;DHT22;68121;52.404;5.318;2023-02-28T05:57:20;3.00;67.20
78779;DHT22;68121;52.404;5.318;2023-02-28T05:59:46;3.00;67.20
78779;DHT22;68121;52.404;5.318;2023-02-28T06:02:13;2.90;67.20
78779;DHT22;68121;52.404;5.318;2023-02-28T06:04:39;2.80;67.10
78779;DHT22;68121;52.404;5.318;2023-02-28T06:07:07;2.70;67.10
78779;DHT22;68121;52.404;5.318;2023-02-28T06:09:33;2.70;67.00
78779;DHT22;68121;52.404;5.318;2023-02-28T06:12:00;2.60;67.00
78779;DHT22;68121;52.404;5.318;2023-02-28T06:14:29;2.50;66.90
78779;DHT22;68121;52.404;5.318;2023-02-28T06:16:57;2.50;66.80
78779;DHT22;68121;52.404;5.318;2023-02-28T06:19:23;2.50;66.70
78779;DHT22;68121;52.404;5.318;2023-02-28T06:21:52;2.50;66.70
78779;DHT22;68121;52.404;5.318;2023-02-28T06:24:19;2.40;66.60
78779;DHT22;68121;52.404;5.318;2023-02-28T06:26:45;2.40;66.50
78779;DHT22;68121;52.404;5.318;2023-02-28T06:29:12;2.40;66.60
78779;DHT22;68121;52.404;5.318;2023-02-28T06:31:38;2.30;66.60
78779;DHT22;68121;52.404;5.318;2023-02-28T06:34:05;2.20;66.60
78779;DHT22;68121;52.404;5.318;2023-02-28T06:36:31;2.20;66.60
78779;DHT22;68121;52.404;5.318;2023-02-28T06:38:57;2.10;66.70
78779;DHT22;68121;52.404;5.318;2023-02-28T06:41:24;2.00;66.70
78779;DHT22;68121;52.404;5.318;2023-02-28T06:43:52;2.00;66.80
78779;DHT22;68121;52.404;5.318;2023-02-28T06:46:18;1.90;66.90
78779;DHT22;68121;52.404;5.318;2023-02-28T06:48:45;1.80;67.00
78779;DHT22;68121;52.404;5.318;2023-02-28T06:51:17;1.80;67.10
78779;DHT22;68121;52.404;5.318;2023-02-28T06:53:43;1.70;67.20
78779;DHT22;68121;52.404;5.318;2023-02-28T06:56:13;1.70;67.40
78779;DHT22;68121;52.404;5.318;2023-02-28T06:58:39;1.70;67.50
78779;DHT22;68121;52.404;5.318;2023-02-28T07:01:07;1.70;67.50
78779;DHT22;68121;52.404;5.318;2023-02-28T07:03:35;1.60;67.60
78779;DHT22;68121;52.404;5.318;2023-02-28T07:06:01;1.70;67.60
78779;DHT22;68121;52.404;5.318;2023-02-28T07:08:28;1.70;67.70
78779;DHT22;68121;52.404;5.318;2023-02-28T07:10:55;1.70;67.70
78779;DHT22;68121;52.404;5.318;2023-02-28T07:13:22;1.60;67.80
78779;DHT22;68121;52.404;5.318;2023-02-28T07:15:59;1.60;67.90
78779;DHT22;68121;52.404;5.318;2023-02-28T07:18:25;1.70;67.90
78779;DHT22;68121;52.404;5.318;2023-02-28T07:20:52;1.70;67.90
78779;DHT22;68121;52.404;5.318;2023-02-28T07:23:18;1.70;68.00
78779;DHT22;68121;52.404;5.318;2023-02-28T07:25:45;1.70;68.00
78779;DHT22;68121;52.404;5.318;2023-02-28T07:28:12;1.70;68.00
78779;DHT22;68121;52.404;5.318;2023-02-28T07:30:39;1.80;68.10
78779;DHT22;68121;52.404;5.318;2023-02-28T07:33:05;1.80;68.10
78779;DHT22;68121;52.404;5.318;2023-02-28T07:35:31;1.80;68.10
78779;DHT22;68121;52.404;5.318;2023-02-28T07:37:58;1.90;68.20
78779;DHT22;68121;52.404;5.318;2023-02-28T07:40:25;1.90;68.20
78779;DHT22;68121;52.404;5.318;2023-02-28T07:42:51;2.00;68.20
78779;DHT22;68121;52.404;5.318;2023-02-28T07:45:17;2.00;68.20
78779;DHT22;68121;52.404;5.318;2023-02-28T07:47:44;2.00;68.20
78779;DHT22;68121;52.404;5.318;2023-02-28T07:50:12;2.10;68.30
78779;DHT22;68121;52.404;5.318;2023-02-28T07:52:39;2.10;68.30
78779;DHT22;68121;52.404;5.318;2023-02-28T07:55:06;2.10;68.30
78779;DHT22;68121;52.404;5.318;2023-02-28T07:57:33;2.20;68.30
78779;DHT22;68121;52.404;5.318;2023-02-28T07:59:59;2.20;68.30
78779;DHT22;68121;52.404;5.318;2023-02-28T08:02:25;2.30;68.30
78779;DHT22;68121;52.404;5.318;2023-02-28T08:04:52;2.30;68.20
78779;DHT22;68121;52.404;5.318;2023-02-28T08:07:18;2.30;68.30
78779;DHT22;68121;52.404;5.318;2023-02-28T08:09:44;2.40;68.30
78779;DHT22;68121;52.404;5.318;2023-02-28T08:12:11;2.40;68.20
78779;DHT22;68121;52.404;5.318;2023-02-28T08:14:37;2.40;68.20
78779;DHT22;68121;52.404;5.318;2023-02-28T08:17:04;2.50;68.20
78779;DHT22;68121;52.404;5.318;2023-02-28T08:19:30;2.50;68.10
78779;DHT22;68121;52.404;5.318;2023-02-28T08:21:56;2.50;68.10
78779;DHT22;68121;52.404;5.318;2023-02-28T08:24:22;2.50;68.10
78779;DHT22;68121;52.404;5.318;2023-02-28T08:26:49;2.50;68.10
78779;DHT22;68121;52.404;5.318;2023-02-28T08:29:15;2.50;68.10
78779;DHT22;68121;52.404;5.318;2023-02-28T08:31:41;2.60;68.10
78779;DHT22;68121;52.404;5.318;2023-02-28T08:34:12;2.60;68.20
78779;DHT22;68121;52.404;5.318;2023-02-28T08:36:38;2.70;68.30
78779;DHT22;68121;52.404;5.318;2023-02-28T08:39:05;2.70;68.20
78779;DHT22;68121;52.404;5.318;2023-02-28T08:41:31;2.70;68.20
78779;DHT22;68121;52.404;5.318;2023-02-28T08:43:57;2.80;68.30
78779;DHT22;68121;52.404;5.318;2023-02-28T08:46:24;2.80;68.30
78779;DHT22;68121;52.404;5.318;2023-02-28T08:48:54;2.80;68.40
78779;DHT22;68121;52.404;5.318;2023-02-28T08:51:21;3.00;68.60
78779;DHT22;68121;52.404;5.318;2023-02-28T08:53:53;3.10;68.40
78779;DHT22;68121;52.404;5.318;2023-02-28T08:56:20;3.10;68.30
78779;DHT22;68121;52.404;5.318;2023-02-28T08:58:47;3.10;68.20
78779;DHT22;68121;52.404;5.318;2023-02-28T09:01:20;3.10;68.20
78779;DHT22;68121;52.404;5.318;2023-02-28T09:03:47;3.10;68.20
78779;DHT22;68121;52.404;5.318;2023-02-28T09:06:15;3.10;68.30
78779;DHT22;68121;52.404;5.318;2023-02-28T09:08:42;3.10;68.40
78779;DHT22;68121;52.404;5.318;2023-02-28T09:11:09;3.10;68.40
78779;DHT22;68121;52.404;5.318;2023-02-28T09:13:36;3.20;68.50
78779;DHT22;68121;52.404;5.318;2023-02-28T09:16:06;3.10;68.40
78779;DHT22;68121;52.404;5.318;2023-02-28T09:18:34;3.10;68.50
78779;DHT22;68121;52.404;5.318;2023-02-28T09:21:08;3.10;68.40
78779;DHT22;68121;52.404;5.318;2023-02-28T09:23:34;3.10;68.50
78779;DHT22;68121;52.404;5.318;2023-02-28T09:26:00;3.10;68.60
78779;DHT22;68121;52.404;5.318;2023-02-28T09:28:27;3.10;68.60
78779;DHT22;68121;52.404;5.318;2023-02-28T09:30:54;3.10;68.70
78779;DHT22;68121;52.404;5.318;2023-02-28T09:33:21;3.10;68.60
78779;DHT22;68121;52.404;5.318;2023-02-28T09:35:48;3.10;68.70
78779;DHT22;68121;52.404;5.318;2023-02-28T09:38:14;3.10;68.70
78779;DHT22;68121;52.404;5.318;2023-02-28T09:40:48;3.10;68.80
78779;DHT22;68121;52.404;5.318;2023-02-28T09:43:16;3.10;68.90
78779;DHT22;68121;52.404;5.318;2023-02-28T09:45:48;3.10;68.80
78779;DHT22;68121;52.404;5.318;2023-02-28T09:48:23;3.10;68.80
78779;DHT22;68121;52.404;5.318;2023-02-28T09:50:55;3.10;68.80
78779;DHT22;68121;52.404;5.318;2023-02-28T09:53:26;3.10;68.60
78779;DHT22;68121;52.404;5.318;2023-02-28T09:56:14;3.10;68.60
78779;DHT22;68121;52.404;5.318;2023-02-28T09:58:55;3.10;68.50
78779;DHT22;68121;52.404;5.318;2023-02-28T10:04:10;3.30;68.10
78779;DHT22;68121;52.404;5.318;2023-02-28T10:06:58;3.50;68.10
78779;DHT22;68121;52.404;5.318;2023-02-28T10:09:30;3.50;68.00
78779;DHT22;68121;52.404;5.318;2023-02-28T10:12:04;3.60;67.90
78779;DHT22;68121;52.404;5.318;2023-02-28T10:14:33;3.60;67.90
78779;DHT22;68121;52.404;5.318;2023-02-28T10:17:12;3.70;67.80
78779;DHT22;68121;52.404;5.318;2023-02-28T10:19:44;3.70;67.70
78779;DHT22;68121;52.404;5.318;2023-02-28T10:22:31;3.70;67.50
78779;DHT22;68121;52.404;5.318;2023-02-28T10:25:22;3.70;67.40
78779;DHT22;68121;52.404;5.318;2023-02-28T10:27:50;3.80;67.20
78779;DHT22;68121;52.404;5.318;2023-02-28T10:30:19;3.80;67.10
78779;DHT22;68121;52.404;5.318;2023-02-28T10:32:50;3.90;66.90
78779;DHT22;68121;52.404;5.318;2023-02-28T10:35:21;3.90;66.60
78779;DHT22;68121;52.404;5.318;2023-02-28T10:37:50;4.00;66.40
78779;DHT22;68121;52.404;5.318;2023-02-28T10:42:56;4.20;65.50
78779;DHT22;68121;52.404;5.318;2023-02-28T10:45:23;4.30;65.20
78779;DHT22;68121;52.404;5.318;2023-02-28T10:47:58;4.30;65.00
78779;DHT22;68121;52.404;5.318;2023-02-28T10:50:44;4.40;64.80
78779;DHT22;68121;52.404;5.318;2023-02-28T10:58:59;4.60;64.30
78779;DHT22;68121;52.404;5.318;2023-02-28T11:03:58;4.70;64.10
78779;DHT22;68121;52.404;5.318;2023-02-28T11:06:30;4.90;64.00
78779;DHT22;68121;52.404;5.318;2023-02-28T11:08:59;4.90;63.70
78779;DHT22;68121;52.404;5.318;2023-02-28T11:11:28;5.00;63.50
78779;DHT22;68121;52.404;5.318;2023-02-28T11:14:03;5.00;63.40
78779;DHT22;68121;52.404;5.318;2023-02-28T11:16:37;5.10;63.30
78779;DHT22;68121;52.404;5.318;2023-02-28T11:19:06;5.20;62.90
78779;DHT22;68121;52.404;5.318;2023-02-28T11:21:52;5.30;62.80
78779;DHT22;68121;52.404;5.318;2023-02-28T11:24:27;5.50;62.90
78779;DHT22;68121;52.404;5.318;2023-02-28T11:26:54;5.80;62.40
78779;DHT22;68121;52.404;5.318;2023-02-28T11:29:27;5.90;62.00
78779;DHT22;68121;52.404;5.318;2023-02-28T11:34:36;6.20;61.10
78779;DHT22;68121;52.404;5.318;2023-02-28T11:37:05;6.50;60.80
78779;DHT22;68121;52.404;5.318;2023-02-28T11:39:32;6.80;60.40
78779;DHT22;68121;52.404;5.318;2023-02-28T11:42:08;7.20;60.00
78779;DHT22;68121;52.404;5.318;2023-02-28T11:45:35;7.50;59.50
78779;DHT22;68121;52.404;5.318;2023-02-28T11:50:42;8.00;58.50
78779;DHT22;68121;52.404;5.318;2023-02-28T11:55:49;8.40;57.90
78779;DHT22;68121;52.404;5.318;2023-02-28T11:58:41;8.60;57.20
78779;DHT22;68121;52.404;5.318;2023-02-28T12:01:36;8.50;56.40
78779;DHT22;68121;52.404;5.318;2023-02-28T12:07:15;8.30;55.40
78779;DHT22;68121;52.404;5.318;2023-02-28T12:12:45;8.20;55.60
78779;DHT22;68121;52.404;5.318;2023-02-28T12:26:02;8.70;53.60
78779;DHT22;68121;52.404;5.318;2023-02-28T12:28:55;8.60;52.80
78779;DHT22;68121;52.404;5.318;2023-02-28T12:31:26;8.60;52.90
78779;DHT22;68121;52.404;5.318;2023-02-28T12:34:00;8.90;52.80
78779;DHT22;68121;52.404;5.318;2023-02-28T12:36:28;9.00;52.50
78779;DHT22;68121;52.404;5.318;2023-02-28T12:39:00;9.20;52.20
78779;DHT22;68121;52.404;5.318;2023-02-28T12:44:22;9.00;51.30
78779;DHT22;68121;52.404;5.318;2023-02-28T12:46:51;9.00;51.40
78779;DHT22;68121;52.404;5.318;2023-02-28T12:52:03;9.50;50.90
78779;DHT22;68121;52.404;5.318;2023-02-28T12:54:35;9.70;50.70
78779;DHT22;68121;52.404;5.318;2023-02-28T12:57:32;9.80;50.30
78779;DHT22;68121;52.404;5.318;2023-02-28T13:00:11;10.00;49.40
78779;DHT22;68121;52.404;5.318;2023-02-28T13:10:58;10.00;49.20
78779;DHT22;68121;52.404;5.318;2023-02-28T13:13:29;10.20;49.20
78779;DHT22;68121;52.404;5.318;2023-02-28T13:18:51;10.40;48.80
78779;DHT22;68121;52.404;5.318;2023-02-28T13:21:27;10.00;47.70
78779;DHT22;68121;52.404;5.318;2023-02-28T13:24:01;9.80;48.50
78779;DHT22;68121;52.404;5.318;2023-02-28T13:28:59;9.60;48.40
78779;DHT22;68121;52.404;5.318;2023-02-28T13:31:26;9.70;48.40
78779;DHT22;68121;52.404;5.318;2023-02-28T13:36:27;10.10;48.40
78779;DHT22;68121;52.404;5.318;2023-02-28T13:39:02;10.40;48.30
78779;DHT22;68121;52.404;5.318;2023-02-28T13:44:06;10.50;48.70
78779;DHT22;68121;52.404;5.318;2023-02-28T13:46:35;10.40;49.00
78779;DHT22;68121;52.404;5.318;2023-02-28T13:52:20;10.10;50.00
78779;DHT22;68121;52.404;5.318;2023-02-28T14:06:18;9.30;52.10
78779;DHT22;68121;52.404;5.318;2023-02-28T14:11:40;9.50;52.20
78779;DHT22;68121;52.404;5.318;2023-02-28T14:14:08;9.50;52.30
78779;DHT22;68121;52.404;5.318;2023-02-28T14:16:44;9.50;52.50
78779;DHT22;68121;52.404;5.318;2023-02-28T14:33:19;9.50;52.20
78779;DHT22;68121;52.404;5.318;2023-02-28T14:36:07;9.60;52.00
78779;DHT22;68121;52.404;5.318;2023-02-28T14:38:47;9.80;51.10
78779;DHT22;68121;52.404;5.318;2023-02-28T14:41:30;9.80;50.80
78779;DHT22;68121;52.404;5.318;2023-02-28T14:43:58;9.90;50.60
78779;DHT22;68121;52.404;5.318;2023-02-28T14:46:45;10.00;50.30
78779;DHT22;68121;52.404;5.318;2023-02-28T14:49:34;10.00;49.20
78779;DHT22;68121;52.404;5.318;2023-02-28T14:52:28;10.00;49.30
78779;DHT22;68121;52.404;5.318;2023-02-28T14:55:03;10.00;49.40
78779;DHT22;68121;52.404;5.318;2023-02-28T14:57:34;10.10;49.30
78779;DHT22;68121;52.404;5.318;2023-02-28T15:02:42;10.00;48.80
78779;DHT22;68121;52.404;5.318;2023-02-28T15:07:45;9.80;48.70
78779;DHT22;68121;52.404;5.318;2023-02-28T15:20:44;9.60;48.20
78779;DHT22;68121;52.404;5.318;2023-02-28T15:23:10;9.50;48.10
78779;DHT22;68121;52.404;5.318;2023-02-28T15:25:37;9.40;48.00
78779;DHT22;68121;52.404;5.318;2023-02-28T15:28:04;9.40;47.90
78779;DHT22;68121;52.404;5.318;2023-02-28T15:30:31;9.20;47.40
78779;DHT22;68121;52.404;5.318;2023-02-28T15:33:23;9.00;47.50
78779;DHT22;68121;52.404;5.318;2023-02-28T15:35:49;9.00;47.60
78779;DHT22;68121;52.404;5.318;2023-02-28T15:38:27;8.90;47.70
78779;DHT22;68121;52.404;5.318;2023-02-28T15:40:55;8.80;47.50
78779;DHT22;68121;52.404;5.318;2023-02-28T15:43:30;8.60;47.50
78779;DHT22;68121;52.404;5.318;2023-02-28T15:48:30;8.30;47.70
78779;DHT22;68121;52.404;5.318;2023-02-28T15:51:14;8.30;48.00
78779;DHT22;68121;52.404;5.318;2023-02-28T15:56:29;8.20;49.30
78779;DHT22;68121;52.404;5.318;2023-02-28T15:59:01;8.10;49.90
78779;DHT22;68121;52.404;5.318;2023-02-28T16:01:33;8.00;50.20
78779;DHT22;68121;52.404;5.318;2023-02-28T16:04:17;7.80;50.50
78779;DHT22;68121;52.404;5.318;2023-02-28T16:06:47;7.70;50.90
78779;DHT22;68121;52.404;5.318;2023-02-28T16:09:26;7.60;51.10
78779;DHT22;68121;52.404;5.318;2023-02-28T16:11:55;7.60;51.40
78779;DHT22;68121;52.404;5.318;2023-02-28T16:14:24;7.50;51.50
78779;DHT22;68121;52.404;5.318;2023-02-28T16:16:54;7.50;51.70
78779;DHT22;68121;52.404;5.318;2023-02-28T16:19:21;7.40;51.90
78779;DHT22;68121;52.404;5.318;2023-02-28T16:21:48;7.40;52.00
78779;DHT22;68121;52.404;5.318;2023-02-28T16:24:14;7.20;52.10
78779;DHT22;68121;52.404;5.318;2023-02-28T16:26:41;7.20;52.20
78779;DHT22;68121;52.404;5.318;2023-02-28T16:29:09;7.20;52.40
78779;DHT22;68121;52.404;5.318;2023-02-28T16:31:42;7.20;52.50
78779;DHT22;68121;52.404;5.318;2023-02-28T16:34:08;7.10;52.50
78779;DHT22;68121;52.404;5.318;2023-02-28T16:36:34;7.10;52.70
78779;DHT22;68121;52.404;5.318;2023-02-28T16:39:00;7.00;52.80
78779;DHT22;68121;52.404;5.318;2023-02-28T16:41:28;7.00;53.00
78779;DHT22;68121;52.404;5.318;2023-02-28T16:43:55;7.00;53.20
78779;DHT22;68121;52.404;5.318;2023-02-28T16:46:34;7.00;53.30
78779;DHT22;68121;52.404;5.318;2023-02-28T16:49:00;7.00;53.50
78779;DHT22;68121;52.404;5.318;2023-02-28T16:51:26;6.90;53.60
78779;DHT22;68121;52.404;5.318;2023-02-28T16:53:52;6.90;53.90
78779;DHT22;68121;52.404;5.318;2023-02-28T16:56:21;6.90;54.10
78779;DHT22;68121;52.404;5.318;2023-02-28T16:58:48;6.80;54.40
78779;DHT22;68121;52.404;5.318;2023-02-28T17:01:15;6.70;54.60
78779;DHT22;68121;52.404;5.318;2023-02-28T17:03:42;6.70;54.80
78779;DHT22;68121;52.404;5.318;2023-02-28T17:06:29;6.60;55.00
78779;DHT22;68121;52.404;5.318;2023-02-28T17:08:56;6.60;55.30
78779;DHT22;68121;52.404;5.318;2023-02-28T17:11:24;6.50;55.40
78779;DHT22;68121;52.404;5.318;2023-02-28T17:13:50;6.40;55.50
78779;DHT22;68121;52.404;5.318;2023-02-28T17:16:36;6.30;55.80
78779;DHT22;68121;52.404;5.318;2023-02-28T17:19:04;6.30;56.20
78779;DHT22;68121;52.404;5.318;2023-02-28T17:21:32;6.30;56.10
78779;DHT22;68121;52.404;5.318;2023-02-28T17:23:59;6.20;56.20
78779;DHT22;68121;52.404;5.318;2023-02-28T17:26:26;6.10;56.30
78779;DHT22;68121;52.404;5.318;2023-02-28T17:28:57;6.10;56.50
78779;DHT22;68121;52.404;5.318;2023-02-28T17:31:24;6.10;56.60
78779;DHT22;68121;52.404;5.318;2023-02-28T17:33:51;6.10;56.60
78779;DHT22;68121;52.404;5.318;2023-02-28T17:36:22;6.10;56.80
78779;DHT22;68121;52.404;5.318;2023-02-28T17:38:48;6.00;56.90
78779;DHT22;68121;52.404;5.318;2023-02-28T17:41:15;6.00;57.00
78779;DHT22;68121;52.404;5.318;2023-02-28T17:43:41;5.90;57.20
78779;DHT22;68121;52.404;5.318;2023-02-28T17:46:18;5.90;57.30
78779;DHT22;68121;52.404;5.318;2023-02-28T17:48:50;5.90;57.50
78779;DHT22;68121;52.404;5.318;2023-02-28T17:51:18;5.80;57.50
78779;DHT22;68121;52.404;5.318;2023-02-28T17:53:44;5.80;57.70
78779;DHT22;68121;52.404;5.318;2023-02-28T17:56:15;5.70;57.70
78779;DHT22;68121;52.404;5.318;2023-02-28T17:58:42;5.70;57.90
78779;DHT22;68121;52.404;5.318;2023-02-28T18:01:08;5.60;58.00
78779;DHT22;68121;52.404;5.318;2023-02-28T18:03:34;5.60;58.10
78779;DHT22;68121;52.404;5.318;2023-02-28T18:06:01;5.60;58.20
78779;DHT22;68121;52.404;5.318;2023-02-28T18:08:27;5.50;58.30
78779;DHT22;68121;52.404;5.318;2023-02-28T18:10:54;5.50;58.40
78779;DHT22;68121;52.404;5.318;2023-02-28T18:13:20;5.50;58.50
78779;DHT22;68121;52.404;5.318;2023-02-28T18:15:46;5.50;58.60
78779;DHT22;68121;52.404;5.318;2023-02-28T18:18:13;5.60;58.60
78779;DHT22;68121;52.404;5.318;2023-02-28T18:20:41;5.50;58.70
78779;DHT22;68121;52.404;5.318;2023-02-28T18:23:07;5.50;58.80
78779;DHT22;68121;52.404;5.318;2023-02-28T18:25:33;5.40;59.00